Gainesville, Florida
Current Conditions -  °F | °C
As of 4:44 AM on Monday 24 Nov 2014 (Local Time) from KGNV Reporting Station
Overcast Overcast  
Wind Chill: 73°   Ceiling: 1400
Heat Index: 73°   Visibility: 10mi
Dew Point: 71°   Wind: 8mph
Humidity: 93%   Direction: 180°S
Pressure: 29.89"   Gusts: NA
Location:  29.65°N, 82.32°W
Report Text: KGNV 240944Z AUTO 18007KT 10SM BKN014 OVC024 23/22 A2989 RMK AO2 T02280217
Loading
Personal Weather Stations






























Interactive Weather Map New forecast layout! Learn more

10-Day Weather Forecast

Advertisements
Track Severe Weather on mobile